createdAt,value
2023-04-11T00:00:43.383Z,99127.41
2023-04-11T00:03:12.951Z,99119.65
2023-04-11T00:05:41.702Z,99121.05
2023-04-11T00:08:16.843Z,99118.00
2023-04-11T00:10:46.435Z,99125.11
2023-04-11T00:13:15.004Z,99118.08
2023-04-11T00:15:45.842Z,99119.09
2023-04-11T00:18:15.855Z,99119.09
2023-04-11T00:20:44.355Z,99123.05
2023-04-11T00:23:13.331Z,99125.67
2023-04-11T00:25:42.176Z,99124.39
2023-04-11T00:28:10.909Z,99124.89
2023-04-11T00:30:39.897Z,99117.05
2023-04-11T00:33:09.704Z,99114.95
2023-04-11T00:35:40.460Z,99113.35
2023-04-11T00:38:09.019Z,99113.07
2023-04-11T00:40:37.354Z,99109.41
2023-04-11T00:43:25.809Z,99112.22
2023-04-11T00:45:54.884Z,99109.82
2023-04-11T00:48:25.269Z,99108.20
2023-04-11T00:50:57.331Z,99113.11
2023-04-11T00:53:26.348Z,99108.77
2023-04-11T00:55:55.119Z,99109.86
2023-04-11T00:58:23.491Z,99108.90
2023-04-11T01:00:53.014Z,99113.48
2023-04-11T01:03:23.121Z,99112.60
2023-04-11T01:05:54.979Z,99114.26
2023-04-11T01:08:25.045Z,99113.16
2023-04-11T01:10:54.196Z,99111.17
2023-04-11T01:13:22.681Z,99104.90
2023-04-11T01:15:53.612Z,99110.64
2023-04-11T01:18:23.528Z,99109.54
2023-04-11T01:20:51.931Z,99106.27
2023-04-11T01:23:23.185Z,99107.23
2023-04-11T01:25:51.812Z,99103.75
2023-04-11T01:28:20.641Z,99105.58
2023-04-11T01:30:50.061Z,99102.45
2023-04-11T01:33:19.475Z,99101.34
2023-04-11T01:35:48.176Z,99101.13
2023-04-11T01:38:16.803Z,99095.28
2023-04-11T01:40:45.832Z,99090.70
2023-04-11T01:43:14.275Z,99092.42
2023-04-11T01:45:44.494Z,99093.80
2023-04-11T01:48:14.838Z,99095.73
2023-04-11T01:50:43.306Z,99099.02
2023-04-11T01:53:13.827Z,99101.55
2023-04-11T01:55:42.218Z,99093.33
2023-04-11T01:58:10.698Z,99093.59
2023-04-11T02:00:39.990Z,99093.73
2023-04-11T02:03:08.801Z,99095.79
2023-04-11T02:05:38.072Z,99093.10
2023-04-11T02:08:07.398Z,99095.72
2023-04-11T02:10:36.567Z,99091.28
2023-04-11T02:13:05.020Z,99086.72
2023-04-11T02:15:42.293Z,99086.94
2023-04-11T02:18:13.283Z,99088.39
2023-04-11T02:20:42.182Z,99090.58
2023-04-11T02:23:16.535Z,99089.60
2023-04-11T02:25:45.486Z,99087.73
2023-04-11T02:28:14.061Z,99082.45
2023-04-11T02:30:42.684Z,99078.95
2023-04-11T02:33:14.300Z,99081.90
2023-04-11T02:35:43.229Z,99081.59
2023-04-11T02:38:11.778Z,99081.15
2023-04-11T02:40:41.491Z,99082.25
2023-04-11T02:43:11.909Z,99082.37
2023-04-11T02:45:41.864Z,99079.90
2023-04-11T02:48:10.827Z,99078.15
2023-04-11T02:50:44.035Z,99073.06
2023-04-11T02:53:13.132Z,99067.42
2023-04-11T02:55:49.683Z,99067.40
2023-04-11T02:58:20.311Z,99065.75
2023-04-11T03:00:49.752Z,99067.34
2023-04-11T03:03:26.587Z,99069.16
2023-04-11T03:05:57.212Z,99064.39
2023-04-11T03:08:26.412Z,99063.22
2023-04-11T03:10:56.787Z,99069.11
2023-04-11T03:13:26.544Z,99066.05
2023-04-11T03:15:55.466Z,99066.19
2023-04-11T03:18:27.303Z,99062.33
2023-04-11T03:20:56.403Z,99065.05
2023-04-11T03:23:27.943Z,99064.16
2023-04-11T03:25:57.039Z,99071.26
2023-04-11T03:28:25.525Z,99073.71
2023-04-11T03:30:54.711Z,99069.68
2023-04-11T03:33:26.510Z,99058.42
2023-04-11T03:35:55.207Z,99061.48
2023-04-11T03:38:25.088Z,99058.54
2023-04-11T03:40:53.517Z,99061.39
2023-04-11T03:43:24.826Z,99062.29
2023-04-11T03:45:53.950Z,99064.30
2023-04-11T03:48:33.868Z,99067.15
2023-04-11T03:51:07.365Z,99064.33
2023-04-11T03:53:44.124Z,99063.45
2023-04-11T03:56:24.525Z,99068.73
2023-04-11T03:58:54.016Z,99073.35
2023-04-11T04:01:23.728Z,99074.77
2023-04-11T04:03:53.872Z,99072.67
2023-04-11T04:06:23.021Z,99070.31
2023-04-11T04:08:53.268Z,99069.83
2023-04-11T04:11:22.236Z,99071.90
2023-04-11T04:13:51.122Z,99070.46
2023-04-11T04:16:21.279Z,99071.92
2023-04-11T04:18:53.408Z,99070.25
2023-04-11T04:21:26.935Z,99072.37
2023-04-11T04:24:03.714Z,99062.45
2023-04-11T04:26:58.093Z,99063.98
2023-04-11T04:29:53.634Z,99066.05
2023-04-11T04:32:31.031Z,99066.34
2023-04-11T04:35:11.861Z,99067.83
2023-04-11T04:37:45.890Z,99062.20
2023-04-11T04:40:42.289Z,99064.64
2023-04-11T04:43:18.608Z,99064.32
2023-04-11T04:45:55.114Z,99063.86
2023-04-11T04:48:27.491Z,99063.30
2023-04-11T04:50:56.486Z,99065.40
2023-04-11T04:53:30.780Z,99067.86
2023-04-11T04:56:02.576Z,99065.83
2023-04-11T04:58:32.987Z,99061.64
2023-04-11T05:01:11.570Z,99061.26
2023-04-11T05:03:41.725Z,99057.64
2023-04-11T05:06:13.588Z,99056.13
2023-04-11T05:08:48.927Z,99050.90
2023-04-11T05:11:25.193Z,99049.58
2023-04-11T05:13:53.816Z,99051.65
2023-04-11T05:16:24.151Z,99048.10
2023-04-11T05:18:53.195Z,99042.23
2023-04-11T05:21:22.527Z,99039.89
2023-04-11T05:23:58.204Z,99041.38
2023-04-11T05:26:27.770Z,99039.45
2023-04-11T05:28:56.260Z,99043.07
2023-04-11T05:31:29.127Z,99035.61
2023-04-11T05:33:58.700Z,99036.73
2023-04-11T05:36:28.581Z,99032.69
2023-04-11T05:38:58.472Z,99026.85
2023-04-11T05:41:30.208Z,99021.55
2023-04-11T05:43:58.692Z,99020.05
2023-04-11T05:46:29.635Z,99021.15
2023-04-11T05:48:58.522Z,99017.23
2023-04-11T05:51:27.314Z,99011.10
2023-04-11T05:53:56.152Z,99013.13
2023-04-11T05:56:24.580Z,99009.80
2023-04-11T05:58:52.880Z,99008.09
2023-04-11T06:01:22.390Z,99006.65
2023-04-11T06:03:50.872Z,99007.79
2023-04-11T06:06:21.189Z,99004.77
2023-04-11T06:08:50.049Z,99003.03
2023-04-11T06:11:18.437Z,98998.86
2023-04-11T06:13:50.626Z,98995.38
2023-04-11T06:16:19.310Z,98992.63
2023-04-11T06:18:47.883Z,98989.61
2023-04-11T06:21:17.994Z,98992.85
2023-04-11T06:23:46.771Z,98993.05
2023-04-11T06:26:15.911Z,98990.97
2023-04-11T06:28:45.068Z,98989.23
2023-04-11T06:31:13.815Z,98992.96
2023-04-11T06:33:43.208Z,98990.92
2023-04-11T06:36:12.397Z,98992.36
2023-04-11T06:38:40.740Z,98994.25
2023-04-11T06:41:10.461Z,98989.68
2023-04-11T06:43:39.029Z,98995.92
2023-04-11T06:46:13.974Z,98998.83
2023-04-11T06:48:42.672Z,98999.27
2023-04-11T06:51:11.337Z,98994.08
2023-04-11T06:53:45.448Z,98993.39
2023-04-11T06:56:14.135Z,98995.42
2023-04-11T06:58:45.583Z,98991.48
2023-04-11T07:01:14.882Z,98989.52
2023-04-11T07:03:47.543Z,98990.61
2023-04-11T07:06:20.047Z,98990.00
2023-04-11T07:08:52.732Z,98988.14
2023-04-11T07:11:21.040Z,98985.14
2023-04-11T07:13:56.033Z,98982.71
2023-04-11T07:16:25.777Z,98975.93
2023-04-11T07:18:55.069Z,98974.64
2023-04-11T07:21:23.545Z,98969.88
2023-04-11T07:23:53.889Z,98965.21
2023-04-11T07:26:23.890Z,98960.61
2023-04-11T07:28:53.895Z,98960.38
2023-04-11T07:31:22.973Z,98960.51
2023-04-11T07:33:51.702Z,98958.31
2023-04-11T07:36:20.145Z,98955.00
2023-04-11T07:38:48.939Z,98947.64
2023-04-11T07:41:17.642Z,98945.64
2023-04-11T07:43:47.943Z,98945.31
2023-04-11T07:46:16.536Z,98947.61
2023-04-11T07:48:45.125Z,98947.98
2023-04-11T07:51:13.668Z,98948.74
2023-04-11T07:53:42.134Z,98941.56
2023-04-11T07:56:10.977Z,98938.73
2023-04-11T07:58:39.434Z,98933.16
2023-04-11T08:01:14.641Z,98927.60
2023-04-11T08:03:43.990Z,98923.77
2023-04-11T08:06:12.562Z,98918.54
2023-04-11T08:08:42.831Z,98920.25
2023-04-11T08:18:48.303Z,98903.96
2023-04-11T08:21:16.760Z,98900.00
2023-04-11T08:23:47.531Z,98899.20
2023-04-11T08:26:17.231Z,98893.87
2023-04-11T08:28:45.428Z,98890.32
2023-04-11T08:31:15.704Z,98888.17
2023-04-11T08:33:44.296Z,98885.92
2023-04-11T08:36:12.920Z,98882.09
2023-04-11T08:38:42.016Z,98885.19
2023-04-11T08:41:11.064Z,98885.17
2023-04-11T08:43:44.466Z,98886.50
2023-04-11T08:46:13.897Z,98879.98
2023-04-11T08:48:44.611Z,98880.36
2023-04-11T08:51:14.925Z,98878.30
2023-04-11T08:53:43.508Z,98876.56
2023-04-11T08:56:17.142Z,98869.63
2023-04-11T08:58:45.513Z,98861.70
2023-04-11T09:01:33.702Z,98858.16
2023-04-11T09:04:05.615Z,98859.86
2023-04-11T09:06:37.325Z,98854.09
2023-04-11T09:09:05.625Z,98854.58
2023-04-11T09:11:54.339Z,98850.20
2023-04-11T09:14:29.479Z,98839.95
2023-04-11T09:16:59.240Z,98842.97
2023-04-11T09:19:29.648Z,98833.07
2023-04-11T09:22:01.791Z,98842.08
2023-04-11T09:24:32.047Z,98833.69
2023-04-11T09:27:10.764Z,98836.80
2023-04-11T09:29:42.416Z,98836.92
2023-04-11T09:32:32.674Z,98834.02
2023-04-11T09:35:18.682Z,98832.19
2023-04-11T09:37:55.490Z,98823.44
2023-04-11T09:40:31.567Z,98820.84
2023-04-11T09:43:01.673Z,98818.38
2023-04-11T09:45:33.892Z,98815.69
2023-04-11T09:48:07.173Z,98801.59
2023-04-11T09:50:38.875Z,98805.17
2023-04-11T09:53:07.176Z,98802.84
2023-04-11T09:55:38.292Z,98797.58
2023-04-11T09:58:06.853Z,98791.73
2023-04-11T10:00:35.387Z,98792.30
2023-04-11T10:03:04.633Z,98786.59
2023-04-11T10:05:36.228Z,98785.68
2023-04-11T10:08:11.603Z,98779.27
2023-04-11T10:10:41.089Z,98783.00
2023-04-11T10:13:41.997Z,98781.85
2023-04-11T10:16:11.378Z,98775.33
2023-04-11T10:18:54.733Z,98767.30
2023-04-11T10:21:33.374Z,98757.56
2023-04-11T10:24:09.286Z,98756.39
2023-04-11T10:26:58.330Z,98752.71
2023-04-11T10:29:30.273Z,98751.13
2023-04-11T10:32:17.806Z,98743.20
2023-04-11T10:34:52.304Z,98729.80
2023-04-11T10:37:32.886Z,98732.93
2023-04-11T10:40:12.498Z,98726.95
2023-04-11T10:42:44.902Z,98724.23
2023-04-11T10:45:31.067Z,98713.32
2023-04-11T10:48:07.742Z,98706.98
2023-04-11T10:50:40.904Z,98697.07
2023-04-11T10:53:34.006Z,98697.36
2023-04-11T10:56:02.488Z,98693.00
2023-04-11T10:58:39.718Z,98690.91
2023-04-11T11:03:52.601Z,98684.34
2023-04-11T11:06:21.517Z,98677.95
2023-04-11T11:08:50.163Z,98675.61
2023-04-11T11:11:21.216Z,98676.95
2023-04-11T11:13:56.460Z,98677.59
2023-04-11T11:16:25.915Z,98672.45
2023-04-11T11:19:06.615Z,98668.79
2023-04-11T11:21:35.192Z,98666.56
2023-04-11T11:24:03.907Z,98664.58
2023-04-11T11:26:42.601Z,98661.18
2023-04-11T11:29:11.593Z,98660.89
2023-04-11T11:31:42.164Z,98662.46
2023-04-11T11:34:22.753Z,98657.48
2023-04-11T11:36:53.737Z,98650.59
2023-04-11T11:39:23.299Z,98650.69
2023-04-11T11:41:53.976Z,98651.20
2023-04-11T11:44:26.574Z,98644.23
2023-04-11T11:47:05.609Z,98640.37
2023-04-11T11:49:47.818Z,98635.96
2023-04-11T11:52:36.992Z,98631.25
2023-04-11T11:55:17.919Z,98634.58
2023-04-11T11:57:49.886Z,98633.30
2023-04-11T12:00:25.323Z,98626.23
2023-04-11T12:02:57.526Z,98622.40
2023-04-11T12:05:30.816Z,98618.21
2023-04-11T12:08:00.811Z,98616.50
2023-04-11T12:10:48.745Z,98615.95
2023-04-11T12:13:20.080Z,98609.10
2023-04-11T12:15:53.273Z,98608.02
2023-04-11T12:18:26.513Z,98597.60
2023-04-11T12:20:55.108Z,98601.48
2023-04-11T12:23:23.847Z,98595.98
2023-04-11T12:25:52.347Z,98590.36
2023-04-11T12:28:24.101Z,98592.67
2023-04-11T12:30:52.724Z,98586.31
2023-04-11T12:33:22.301Z,98579.05
2023-04-11T12:35:51.382Z,98575.50
2023-04-11T12:38:23.748Z,98571.71
2023-04-11T12:41:08.689Z,98570.82
2023-04-11T12:43:42.975Z,98576.12
2023-04-11T12:46:11.804Z,98578.62
2023-04-11T12:48:40.399Z,98574.67
2023-04-11T12:51:09.805Z,98570.89
2023-04-11T12:53:38.308Z,98572.59
2023-04-11T12:56:07.686Z,98565.36
2023-04-11T12:58:37.918Z,98563.77
2023-04-11T13:01:07.722Z,98565.19
2023-04-11T13:03:38.483Z,98558.09
2023-04-11T13:06:07.960Z,98558.45
2023-04-11T13:08:38.109Z,98556.91
2023-04-11T13:11:07.279Z,98551.21
2023-04-11T13:13:36.870Z,98545.21
2023-04-11T13:16:07.463Z,98540.52
2023-04-11T13:18:35.894Z,98542.05
2023-04-11T13:21:05.915Z,98538.40
2023-04-11T13:23:35.626Z,98533.19
2023-04-11T13:26:07.880Z,98527.70
2023-04-11T13:28:39.243Z,98521.55
2023-04-11T13:31:11.074Z,98522.52
2023-04-11T13:33:40.979Z,98522.92
2023-04-11T13:36:10.530Z,98523.69
2023-04-11T13:38:42.900Z,98515.34
2023-04-11T13:41:14.994Z,98519.55
2023-04-11T13:43:43.561Z,98516.12
2023-04-11T13:46:12.852Z,98512.39
2023-04-11T13:48:41.533Z,98511.73
2023-04-11T13:51:10.752Z,98509.52
2023-04-11T13:53:39.319Z,98506.60
2023-04-11T13:56:08.651Z,98504.93
2023-04-11T13:58:38.527Z,98501.23
2023-04-11T14:01:08.382Z,98500.84
2023-04-11T14:03:38.038Z,98500.25
2023-04-11T14:06:09.038Z,98506.14
2023-04-11T14:08:37.354Z,98503.47
2023-04-11T14:11:06.460Z,98498.61
2023-04-11T14:13:36.784Z,98496.85
2023-04-11T14:16:09.244Z,98497.18
2023-04-11T14:18:37.952Z,98493.70
2023-04-11T14:21:08.470Z,98495.64
2023-04-11T14:23:37.313Z,98492.56
2023-04-11T14:26:07.110Z,98494.05
2023-04-11T14:28:37.914Z,98488.86
2023-04-11T14:31:06.864Z,98486.30
2023-04-11T14:33:41.022Z,98487.42
2023-04-11T14:36:09.904Z,98481.52
2023-04-11T14:38:38.418Z,98481.98
2023-04-11T14:41:07.376Z,98481.23
2023-04-11T14:43:36.268Z,98479.42
2023-04-11T14:46:07.182Z,98480.16
2023-04-11T14:48:36.405Z,98482.33
2023-04-11T14:51:05.787Z,98481.20
2023-04-11T14:53:34.855Z,98479.64
2023-04-11T14:56:06.910Z,98481.82
2023-04-11T14:58:36.681Z,98482.09
2023-04-11T15:01:05.278Z,98481.14
2023-04-11T15:03:35.113Z,98483.66
2023-04-11T15:06:11.337Z,98485.23
2023-04-11T15:08:41.874Z,98483.32
2023-04-11T15:11:10.669Z,98480.70
2023-04-11T15:13:48.453Z,98486.09
2023-04-11T15:16:19.339Z,98480.95
2023-04-11T15:18:49.307Z,98478.21
2023-04-11T15:21:27.626Z,98473.97
2023-04-11T15:23:56.756Z,98467.70
2023-04-11T15:26:26.014Z,98469.70
2023-04-11T15:28:56.676Z,98468.94
2023-04-11T15:31:26.432Z,98464.14
2023-04-11T15:33:57.048Z,98464.27
2023-04-11T15:36:47.275Z,98461.73
2023-04-11T15:39:16.268Z,98459.94
2023-04-11T15:41:44.711Z,98458.27
2023-04-11T15:44:13.334Z,98458.50
2023-04-11T15:46:41.982Z,98458.95
2023-04-11T15:49:16.952Z,98457.48
2023-04-11T15:51:46.686Z,98459.67
2023-04-11T15:54:15.050Z,98457.48
2023-04-11T15:56:43.535Z,98456.80
2023-04-11T15:59:13.130Z,98458.86
2023-04-11T16:01:46.379Z,98458.62
2023-04-11T16:04:16.541Z,98455.88
2023-04-11T16:06:45.537Z,98455.18
2023-04-11T16:09:14.072Z,98452.38
2023-04-11T16:11:44.054Z,98444.14
2023-04-11T16:14:12.992Z,98438.77
2023-04-11T16:16:47.150Z,98436.69
2023-04-11T16:19:16.590Z,98440.17
2023-04-11T16:21:45.647Z,98436.69
2023-04-11T16:24:21.697Z,98434.86
2023-04-11T16:26:50.632Z,98434.36
2023-04-11T16:29:19.077Z,98435.23
2023-04-11T16:31:48.790Z,98430.88
2023-04-11T16:34:18.081Z,98427.35
2023-04-11T16:36:48.610Z,98431.23
2023-04-11T16:39:17.000Z,98432.45
2023-04-11T16:41:45.856Z,98434.02
2023-04-11T16:44:16.616Z,98426.44
2023-04-11T16:46:45.283Z,98429.00
2023-04-11T16:49:16.847Z,98418.17
2023-04-11T16:51:45.128Z,98420.27
2023-04-11T16:54:14.025Z,98418.13
2023-04-11T16:56:42.411Z,98421.62
2023-04-11T16:59:12.522Z,98419.37
2023-04-11T17:01:42.176Z,98419.77
2023-04-11T17:04:13.252Z,98419.86
2023-04-11T17:06:41.850Z,98421.10
2023-04-11T17:09:11.151Z,98421.16
2023-04-11T17:11:39.749Z,98417.59
2023-04-11T17:14:10.365Z,98415.60
2023-04-11T17:16:40.621Z,98416.55
2023-04-11T17:19:10.716Z,98419.75
2023-04-11T17:21:46.631Z,98421.16
2023-04-11T17:24:16.167Z,98417.14
2023-04-11T17:26:44.573Z,98417.13
2023-04-11T17:29:14.375Z,98418.52
2023-04-11T17:31:42.892Z,98416.80
2023-04-11T17:34:12.668Z,98413.03
2023-04-11T17:36:43.233Z,98418.19
2023-04-11T17:39:17.671Z,98420.27
2023-04-11T17:41:46.698Z,98422.23
2023-04-11T17:44:16.305Z,98420.02
2023-04-11T17:46:44.848Z,98418.47
2023-04-11T17:49:13.472Z,98417.70
2023-04-11T17:51:48.632Z,98416.70
2023-04-11T17:54:21.718Z,98413.26
2023-04-11T17:56:50.894Z,98414.13
2023-04-11T17:59:21.647Z,98415.27
2023-04-11T18:01:53.660Z,98414.36
2023-04-11T18:04:24.070Z,98413.89
2023-04-11T18:06:52.613Z,98411.73
2023-04-11T18:09:26.815Z,98408.91
2023-04-11T18:11:55.414Z,98406.98
2023-04-11T18:14:25.448Z,98404.94
2023-04-11T18:16:55.330Z,98398.73
2023-04-11T18:19:24.117Z,98403.09
2023-04-11T18:21:53.753Z,98404.52
2023-04-11T18:24:25.692Z,98400.09
2023-04-11T18:26:54.388Z,98400.79
2023-04-11T18:29:24.297Z,98399.09
2023-04-11T18:31:53.963Z,98397.91
2023-04-11T18:34:22.830Z,98396.61
2023-04-11T18:36:54.455Z,98397.98
2023-04-11T18:39:23.848Z,98395.67
2023-04-11T18:41:52.148Z,98395.34
2023-04-11T18:44:21.633Z,98391.77
2023-04-11T18:46:51.848Z,98391.59
2023-04-11T18:49:22.352Z,98389.04
2023-04-11T18:51:52.926Z,98384.63
2023-04-11T18:54:23.651Z,98382.98
2023-04-11T18:56:54.132Z,98380.95
2023-04-11T18:59:28.684Z,98373.27
2023-04-11T19:01:59.125Z,98372.41
2023-04-11T19:04:30.176Z,98369.95
2023-04-11T19:06:59.294Z,98363.67
2023-04-11T19:09:28.353Z,98360.04
2023-04-11T19:11:57.017Z,98362.45
2023-04-11T19:14:26.025Z,98355.56
2023-04-11T19:16:55.650Z,98353.67
2023-04-11T19:19:24.317Z,98353.27
2023-04-11T19:21:53.020Z,98349.89
2023-04-11T19:24:21.994Z,98351.36
2023-04-11T19:26:50.580Z,98345.98
2023-04-11T19:29:20.600Z,98346.45
2023-04-11T19:31:49.133Z,98342.23
2023-04-11T19:34:17.803Z,98340.05
2023-04-11T19:36:46.447Z,98338.55
2023-04-11T19:39:15.652Z,98340.13
2023-04-11T19:41:45.725Z,98334.35
2023-04-11T19:44:14.863Z,98333.46
2023-04-11T19:54:19.847Z,98323.02
2023-04-11T19:56:49.562Z,98320.03
2023-04-11T19:59:18.135Z,98316.74
2023-04-11T20:01:47.156Z,98313.83
2023-04-11T20:04:17.868Z,98308.27
2023-04-11T20:06:47.268Z,98309.43
2023-04-11T20:09:16.260Z,98303.75
2023-04-11T20:11:47.949Z,98303.01
2023-04-11T20:14:16.916Z,98299.89
2023-04-11T20:16:45.700Z,98297.11
2023-04-11T20:19:14.690Z,98294.96
2023-04-11T20:21:43.286Z,98300.86
2023-04-11T20:24:12.513Z,98294.00
2023-04-11T20:26:41.426Z,98291.74
2023-04-11T20:29:09.953Z,98288.09
2023-04-11T20:31:38.983Z,98289.59
2023-04-11T20:34:08.080Z,98284.86
2023-04-11T20:36:39.385Z,98283.95
2023-04-11T20:39:08.507Z,98276.10
2023-04-11T20:41:40.779Z,98276.76
2023-04-11T20:44:09.126Z,98275.06
2023-04-11T20:46:40.006Z,98275.42
2023-04-11T20:49:08.951Z,98274.05
2023-04-11T20:51:37.739Z,98268.19
2023-04-11T20:54:06.650Z,98266.59
2023-04-11T20:56:36.441Z,98266.23
2023-04-11T20:59:10.250Z,98265.36
2023-04-11T21:01:38.906Z,98262.98
2023-04-11T21:04:10.134Z,98260.05
2023-04-11T21:06:45.226Z,98261.45
2023-04-11T21:09:13.634Z,98260.04
2023-04-11T21:11:42.283Z,98257.80
2023-04-11T21:14:26.990Z,98252.20
2023-04-11T21:16:56.041Z,98249.92
2023-04-11T21:19:25.170Z,98250.32
2023-04-11T21:21:54.956Z,98248.48
2023-04-11T21:24:23.739Z,98244.98
2023-04-11T21:26:52.250Z,98240.13
2023-04-11T21:29:28.555Z,98235.48
2023-04-11T21:31:56.854Z,98231.25
2023-04-11T21:34:25.520Z,98232.64
2023-04-11T21:36:54.542Z,98234.13
2023-04-11T21:39:25.175Z,98232.10
2023-04-11T21:41:53.811Z,98230.63
2023-04-11T21:44:22.539Z,98228.95
2023-04-11T21:46:52.055Z,98225.37
2023-04-11T21:49:21.135Z,98223.13
2023-04-11T21:51:53.412Z,98216.77
2023-04-11T21:54:21.992Z,98216.92
2023-04-11T21:56:51.118Z,98213.61
2023-04-11T21:59:25.006Z,98209.38
2023-04-11T22:01:54.064Z,98209.59
2023-04-11T22:04:23.302Z,98207.70
2023-04-11T22:06:54.429Z,98202.72
2023-04-11T22:09:23.228Z,98200.86
2023-04-11T22:11:52.347Z,98200.48
2023-04-11T22:14:28.933Z,98194.34
2023-04-11T22:17:00.969Z,98194.23
2023-04-11T22:19:29.692Z,98192.91
2023-04-11T22:22:03.572Z,98191.67
2023-04-11T22:24:33.453Z,98189.17
2023-04-11T22:27:04.392Z,98181.04
2023-04-11T22:29:34.863Z,98180.73
2023-04-11T22:32:04.299Z,98178.64
2023-04-11T22:34:32.806Z,98178.25
2023-04-11T22:37:02.255Z,98172.27
2023-04-11T22:39:30.998Z,98169.40
2023-04-11T22:42:00.302Z,98163.64
2023-04-11T22:44:28.924Z,98159.63
2023-04-11T22:47:04.061Z,98160.45
2023-04-11T22:49:33.418Z,98165.55
2023-04-11T22:52:02.447Z,98163.35
2023-04-11T22:54:35.399Z,98160.74
2023-04-11T22:57:03.981Z,98157.63
2023-04-11T22:59:33.987Z,98156.14
2023-04-11T23:02:02.662Z,98155.14
2023-04-11T23:04:31.985Z,98149.20
2023-04-11T23:07:05.149Z,98143.67
2023-04-11T23:09:33.452Z,98143.82
2023-04-11T23:12:03.156Z,98142.05
2023-04-11T23:14:32.414Z,98135.98
2023-04-11T23:17:01.229Z,98135.63
2023-04-11T23:19:32.401Z,98131.34
2023-04-11T23:22:02.841Z,98129.57
2023-04-11T23:24:32.034Z,98126.59
2023-04-11T23:27:00.593Z,98127.71
2023-04-11T23:29:30.945Z,98126.44
2023-04-11T23:31:59.295Z,98127.05
2023-04-11T23:34:30.949Z,98125.11
2023-04-11T23:37:01.012Z,98123.73
2023-04-11T23:39:29.656Z,98120.20
2023-04-11T23:41:59.161Z,98118.58
2023-04-11T23:44:27.964Z,98115.57
2023-04-11T23:47:02.281Z,98115.74
2023-04-11T23:49:31.031Z,98115.34
2023-04-11T23:51:59.469Z,98116.27
2023-04-11T23:54:30.416Z,98115.45
2023-04-11T23:56:59.305Z,98110.73
2023-04-11T23:59:27.853Z,98104.86
